Time,TemperatureF,DewpointF,PressureIn,WindDirection,WindDirectionDegrees,WindSpeedMPH,WindSpeedGustMPH,Humidity,HourlyPrecipIn,Conditions,Clouds,dailyrainin,SoftwareType,DateUTC
2013-02-05 00:01:00,13.0,-99.9,-100.00,WNW,287,25.0,38.0,-999,-99.99,,,-99.99,,2013-02-05 07:01:00,
2013-02-05 00:12:00,13.0,-99.9,-100.00,WNW,287,25.0,38.0,-999,-99.99,,,-99.99,,2013-02-05 07:12:00,
2013-02-05 00:22:00,14.0,-99.9,-100.00,WNW,284,28.0,38.0,-999,-99.99,,,-99.99,,2013-02-05 07:22:00,
2013-02-05 00:32:00,14.0,-99.9,-100.00,WNW,286,26.0,38.0,-999,-99.99,,,-99.99,,2013-02-05 07:32:00,
2013-02-05 00:42:00,14.0,-99.9,-100.00,WNW,286,26.0,38.0,-999,-99.99,,,-99.99,,2013-02-05 07:42:00,
2013-02-05 00:52:00,15.0,-99.9,-100.00,West,269,26.0,33.0,-999,-99.99,,,-99.99,,2013-02-05 07:52:00,
2013-02-05 01:01:00,15.0,-99.9,-100.00,West,275,23.0,33.0,-999,-99.99,,,-99.99,,2013-02-05 08:01:00,
2013-02-05 01:11:00,15.0,-99.9,-100.00,West,275,23.0,33.0,-999,-99.99,,,-99.99,,2013-02-05 08:11:00,
2013-02-05 01:22:00,15.0,-99.9,-100.00,West,272,24.0,32.0,-999,-99.99,,,-99.99,,2013-02-05 08:22:00,
2013-02-05 01:32:00,15.0,-99.9,-100.00,West,274,23.0,32.0,-999,-99.99,,,-99.99,,2013-02-05 08:32:00,
2013-02-05 01:42:00,15.0,-99.9,-100.00,West,274,23.0,32.0,-999,-99.99,,,-99.99,,2013-02-05 08:42:00,
2013-02-05 01:52:00,14.0,-99.9,-100.00,West,281,25.0,36.0,-999,-99.99,,,-99.99,,2013-02-05 08:52:00,
2013-02-05 02:02:00,15.0,-99.9,-100.00,West,281,25.0,36.0,-999,-99.99,,,-99.99,,2013-02-05 09:02:00,
2013-02-05 02:12:00,15.0,-99.9,-100.00,West,281,25.0,36.0,-999,-99.99,,,-99.99,,2013-02-05 09:12:00,
2013-02-05 02:22:00,14.0,-99.9,-100.00,WNW,287,21.0,28.0,-999,-99.99,,,-99.99,,2013-02-05 09:22:00,
2013-02-05 02:32:00,14.0,-99.9,-100.00,WNW,290,19.0,29.0,-999,-99.99,,,-99.99,,2013-02-05 09:32:00,
2013-02-05 02:42:00,14.0,-99.9,-100.00,WNW,290,19.0,29.0,-999,-99.99,,,-99.99,,2013-02-05 09:42:00,
2013-02-05 02:52:00,15.0,-99.9,-100.00,West,281,13.0,18.0,-999,-99.99,,,-99.99,,2013-02-05 09:52:00,
2013-02-05 03:02:00,15.0,-99.9,-100.00,West,267,14.0,18.0,-999,-99.99,,,-99.99,,2013-02-05 10:02:00,
2013-02-05 03:11:00,15.0,-99.9,-100.00,West,267,14.0,18.0,-999,-99.99,,,-99.99,,2013-02-05 10:11:00,
2013-02-05 03:22:00,15.0,-99.9,-100.00,West,278,14.0,22.0,-999,-99.99,,,-99.99,,2013-02-05 10:22:00,
2013-02-05 03:32:00,14.0,-99.9,-100.00,West,266,15.0,24.0,-999,-99.99,,,-99.99,,2013-02-05 10:32:00,
2013-02-05 03:42:00,14.0,-99.9,-100.00,West,266,15.0,24.0,-999,-99.99,,,-99.99,,2013-02-05 10:42:00,
2013-02-05 03:52:00,14.0,-99.9,-100.00,WSW,258,15.0,22.0,-999,-99.99,,,-99.99,,2013-02-05 10:52:00,
2013-02-05 04:02:00,15.0,-99.9,-100.00,West,265,11.0,15.0,-999,-99.99,,,-99.99,,2013-02-05 11:02:00,
2013-02-05 04:11:00,15.0,-99.9,-100.00,West,265,11.0,15.0,-999,-99.99,,,-99.99,,2013-02-05 11:11:00,
2013-02-05 04:22:00,15.0,-99.9,-100.00,West,266,13.0,24.0,-999,-99.99,,,-99.99,,2013-02-05 11:22:00,
2013-02-05 04:32:00,15.0,-99.9,-100.00,West,263,14.0,21.0,-999,-99.99,,,-99.99,,2013-02-05 11:32:00,
2013-02-05 04:42:00,15.0,-99.9,-100.00,West,263,14.0,21.0,-999,-99.99,,,-99.99,,2013-02-05 11:42:00,
2013-02-05 04:53:00,15.0,-99.9,-100.00,West,261,16.0,24.0,-999,-99.99,,,-99.99,,2013-02-05 11:53:00,
2013-02-05 05:02:00,15.0,-99.9,-100.00,WSW,255,16.0,21.0,-999,-99.99,,,-99.99,,2013-02-05 12:02:00,
2013-02-05 05:12:00,15.0,-99.9,-100.00,WSW,255,16.0,21.0,-999,-99.99,,,-99.99,,2013-02-05 12:12:00,
2013-02-05 05:22:00,16.0,-99.9,-100.00,West,260,20.0,26.0,-999,-99.99,,,-99.99,,2013-02-05 12:22:00,
2013-02-05 05:32:00,16.0,-99.9,-100.00,West,261,22.0,32.0,-999,-99.99,,,-99.99,,2013-02-05 12:32:00,
2013-02-05 05:42:00,16.0,-99.9,-100.00,West,261,22.0,32.0,-999,-99.99,,,-99.99,,2013-02-05 12:42:00,
2013-02-05 05:52:00,16.0,-99.9,-100.00,West,266,24.0,33.0,-999,-99.99,,,-99.99,,2013-02-05 12:52:00,
2013-02-05 06:02:00,15.0,-99.9,-100.00,West,268,23.0,28.0,-999,-99.99,,,-99.99,,2013-02-05 13:02:00,
2013-02-05 06:12:00,15.0,-99.9,-100.00,West,268,23.0,28.0,-999,-99.99,,,-99.99,,2013-02-05 13:12:00,
2013-02-05 06:22:00,15.0,-99.9,-100.00,West,262,25.0,35.0,-999,-99.99,,,-99.99,,2013-02-05 13:22:00,
2013-02-05 06:32:00,15.0,-99.9,-100.00,West,261,25.0,31.0,-999,-99.99,,,-99.99,,2013-02-05 13:32:00,
2013-02-05 06:42:00,15.0,-99.9,-100.00,West,261,25.0,31.0,-999,-99.99,,,-99.99,,2013-02-05 13:42:00,
2013-02-05 06:52:00,15.0,-99.9,-100.00,West,263,25.0,32.0,-999,-99.99,,,-99.99,,2013-02-05 13:52:00,
2013-02-05 07:01:00,16.0,-99.9,-100.00,West,272,20.0,26.0,-999,-99.99,,,-99.99,,2013-02-05 14:01:00,
2013-02-05 07:12:00,16.0,-99.9,-100.00,West,272,20.0,26.0,-999,-99.99,,,-99.99,,2013-02-05 14:12:00,
2013-02-05 07:22:00,15.0,-99.9,-100.00,WSW,252,19.0,26.0,-999,-99.99,,,-99.99,,2013-02-05 14:22:00,
2013-02-05 07:32:00,15.0,-99.9,-100.00,WSW,254,20.0,28.0,-999,-99.99,,,-99.99,,2013-02-05 14:32:00,
2013-02-05 07:42:00,15.0,-99.9,-100.00,WSW,254,20.0,28.0,-999,-99.99,,,-99.99,,2013-02-05 14:42:00,
2013-02-05 07:52:00,15.0,-99.9,-100.00,West,259,22.0,28.0,-999,-99.99,,,-99.99,,2013-02-05 14:52:00,
2013-02-05 08:02:00,16.0,-99.9,-100.00,West,260,20.0,26.0,-999,-99.99,,,-99.99,,2013-02-05 15:02:00,
2013-02-05 08:11:00,16.0,-99.9,-100.00,West,260,20.0,26.0,-999,-99.99,,,-99.99,,2013-02-05 15:11:00,
2013-02-05 08:22:00,15.0,-99.9,-100.00,WSW,258,20.0,25.0,-999,-99.99,,,-99.99,,2013-02-05 15:22:00,
2013-02-05 08:32:00,15.0,-99.9,-100.00,West,263,20.0,26.0,-999,-99.99,,,-99.99,,2013-02-05 15:32:00,
2013-02-05 08:42:00,15.0,-99.9,-100.00,WSW,258,19.0,28.0,-999,-99.99,,,-99.99,,2013-02-05 15:42:00,
2013-02-05 08:52:00,15.0,-99.9,-100.00,WSW,258,19.0,28.0,-999,-99.99,,,-99.99,,2013-02-05 15:52:00,
2013-02-05 09:02:00,16.0,-99.9,-100.00,WSW,254,20.0,28.0,-999,-99.99,,,-99.99,,2013-02-05 16:02:00,
2013-02-05 09:12:00,17.0,-99.9,-100.00,West,261,23.0,31.0,-999,-99.99,,,-99.99,,2013-02-05 16:12:00,
2013-02-05 09:22:00,17.0,-99.9,-100.00,West,261,23.0,31.0,-999,-99.99,,,-99.99,,2013-02-05 16:22:00,
2013-02-05 09:33:00,17.0,-99.9,-100.00,West,263,22.0,29.0,-999,-99.99,,,-99.99,,2013-02-05 16:33:00,
2013-02-05 09:42:00,17.0,-99.9,-100.00,West,263,22.0,29.0,-999,-99.99,,,-99.99,,2013-02-05 16:42:00,
2013-02-05 09:52:00,16.0,-99.9,-100.00,West,264,20.0,29.0,-999,-99.99,,,-99.99,,2013-02-05 16:52:00,
2013-02-05 10:02:00,17.0,-99.9,-100.00,WSW,256,20.0,29.0,-999,-99.99,,,-99.99,,2013-02-05 17:02:00,
2013-02-05 10:12:00,17.0,-99.9,-100.00,WSW,256,20.0,29.0,-999,-99.99,,,-99.99,,2013-02-05 17:12:00,
2013-02-05 10:22:00,17.0,-99.9,-100.00,West,268,21.0,28.0,-999,-99.99,,,-99.99,,2013-02-05 17:22:00,
2013-02-05 10:33:00,19.0,-99.9,-100.00,West,275,20.0,29.0,-999,-99.99,,,-99.99,,2013-02-05 17:33:00,
2013-02-05 10:42:00,19.0,-99.9,-100.00,West,275,20.0,29.0,-999,-99.99,,,-99.99,,2013-02-05 17:42:00,
2013-02-05 10:53:00,19.0,-99.9,-100.00,WNW,282,18.0,28.0,-999,-99.99,,,-99.99,,2013-02-05 17:53:00,
2013-02-05 11:02:00,19.0,-99.9,-100.00,West,270,17.0,26.0,-999,-99.99,,,-99.99,,2013-02-05 18:02:00,
2013-02-05 11:12:00,19.0,-99.9,-100.00,West,270,17.0,26.0,-999,-99.99,,,-99.99,,2013-02-05 18:12:00,
2013-02-05 11:22:00,20.0,-99.9,-100.00,WSW,250,19.0,28.0,-999,-99.99,,,-99.99,,2013-02-05 18:22:00,
2013-02-05 11:32:00,20.0,-99.9,-100.00,WSW,250,17.0,22.0,-999,-99.99,,,-99.99,,2013-02-05 18:32:00,
2013-02-05 11:43:00,20.0,-99.9,-100.00,WSW,250,17.0,22.0,-999,-99.99,,,-99.99,,2013-02-05 18:43:00,
2013-02-05 11:52:00,19.0,-99.9,-100.00,WSW,256,15.0,24.0,-999,-99.99,,,-99.99,,2013-02-05 18:52:00,
2013-02-05 12:02:00,20.0,-99.9,-100.00,WSW,247,14.0,21.0,-999,-99.99,,,-99.99,,2013-02-05 19:02:00,
2013-02-05 12:12:00,20.0,-99.9,-100.00,WSW,247,14.0,21.0,-999,-99.99,,,-99.99,,2013-02-05 19:12:00,
2013-02-05 12:22:00,20.0,-99.9,-100.00,WSW,246,14.0,19.0,-999,-99.99,,,-99.99,,2013-02-05 19:22:00,
2013-02-05 12:32:00,20.0,-99.9,-100.00,WSW,246,14.0,18.0,-999,-99.99,,,-99.99,,2013-02-05 19:32:00,
2013-02-05 12:42:00,20.0,-99.9,-100.00,WSW,246,14.0,18.0,-999,-99.99,,,-99.99,,2013-02-05 19:42:00,
2013-02-05 12:52:00,21.0,-99.9,-100.00,WSW,245,13.0,18.0,-999,-99.99,,,-99.99,,2013-02-05 19:52:00,
2013-02-05 13:02:00,21.0,-99.9,-100.00,SW,231,13.0,24.0,-999,-99.99,,,-99.99,,2013-02-05 20:02:00,
2013-02-05 13:11:00,21.0,-99.9,-100.00,SW,231,13.0,24.0,-999,-99.99,,,-99.99,,2013-02-05 20:11:00,
2013-02-05 13:22:00,20.0,-99.9,-100.00,SW,233,14.0,18.0,-999,-99.99,,,-99.99,,2013-02-05 20:22:00,
2013-02-05 13:32:00,19.0,-99.9,-100.00,WSW,239,16.0,25.0,-999,-99.99,,,-99.99,,2013-02-05 20:32:00,
2013-02-05 13:42:00,19.0,-99.9,-100.00,WSW,239,16.0,25.0,-999,-99.99,,,-99.99,,2013-02-05 20:42:00,
2013-02-05 13:52:00,19.0,-99.9,-100.00,West,265,17.0,24.0,-999,-99.99,,,-99.99,,2013-02-05 20:52:00,
2013-02-05 14:02:00,20.0,-99.9,-100.00,West,261,14.0,22.0,-999,-99.99,,,-99.99,,2013-02-05 21:02:00,
2013-02-05 14:11:00,20.0,-99.9,-100.00,West,261,14.0,22.0,-999,-99.99,,,-99.99,,2013-02-05 21:11:00,
2013-02-05 14:22:00,19.0,-99.9,-100.00,WSW,251,16.0,21.0,-999,-99.99,,,-99.99,,2013-02-05 21:22:00,
2013-02-05 14:32:00,19.0,-99.9,-100.00,West,266,12.0,19.0,-999,-99.99,,,-99.99,,2013-02-05 21:32:00,
2013-02-05 14:42:00,19.0,-99.9,-100.00,West,266,12.0,19.0,-999,-99.99,,,-99.99,,2013-02-05 21:42:00,
2013-02-05 14:52:00,19.0,-99.9,-100.00,West,281,12.0,21.0,-999,-99.99,,,-99.99,,2013-02-05 21:52:00,
2013-02-05 15:02:00,19.0,-99.9,-100.00,WNW,283,13.0,24.0,-999,-99.99,,,-99.99,,2013-02-05 22:02:00,
2013-02-05 15:12:00,19.0,-99.9,-100.00,WNW,283,13.0,24.0,-999,-99.99,,,-99.99,,2013-02-05 22:12:00,
2013-02-05 15:22:00,19.0,-99.9,-100.00,WNW,291,11.0,19.0,-999,-99.99,,,-99.99,,2013-02-05 22:22:00,
2013-02-05 15:32:00,18.0,-99.9,-100.00,West,265,15.0,25.0,-999,-99.99,,,-99.99,,2013-02-05 22:32:00,
2013-02-05 15:42:00,18.0,-99.9,-100.00,West,265,15.0,25.0,-999,-99.99,,,-99.99,,2013-02-05 22:42:00,
2013-02-05 15:52:00,18.0,-99.9,-100.00,WSW,257,18.0,25.0,-999,-99.99,,,-99.99,,2013-02-05 22:52:00,
2013-02-05 16:02:00,18.0,-99.9,-100.00,WSW,254,18.0,25.0,-999,-99.99,,,-99.99,,2013-02-05 23:02:00,
2013-02-05 16:12:00,18.0,-99.9,-100.00,WSW,254,18.0,25.0,-999,-99.99,,,-99.99,,2013-02-05 23:12:00,
2013-02-05 16:22:00,18.0,-99.9,-100.00,WSW,255,19.0,26.0,-999,-99.99,,,-99.99,,2013-02-05 23:22:00,
2013-02-05 16:33:00,18.0,-99.9,-100.00,WSW,249,20.0,25.0,-999,-99.99,,,-99.99,,2013-02-05 23:33:00,
2013-02-05 16:42:00,18.0,-99.9,-100.00,WSW,249,20.0,25.0,-999,-99.99,,,-99.99,,2013-02-05 23:42:00,
2013-02-05 16:53:00,18.0,-99.9,-100.00,WSW,251,19.0,25.0,-999,-99.99,,,-99.99,,2013-02-05 23:53:00,
2013-02-05 17:02:00,18.0,-99.9,-100.00,WSW,250,19.0,24.0,-999,-99.99,,,-99.99,,2013-02-06 00:02:00,
2013-02-05 17:12:00,18.0,-99.9,-100.00,WSW,250,19.0,24.0,-999,-99.99,,,-99.99,,2013-02-06 00:12:00,
2013-02-05 17:22:00,17.0,-99.9,-100.00,WSW,254,20.0,24.0,-999,-99.99,,,-99.99,,2013-02-06 00:22:00,
2013-02-05 17:33:00,17.0,-99.9,-100.00,WSW,249,23.0,28.0,-999,-99.99,,,-99.99,,2013-02-06 00:33:00,
2013-02-05 17:43:00,17.0,-99.9,-100.00,WSW,249,23.0,28.0,-999,-99.99,,,-99.99,,2013-02-06 00:43:00,
2013-02-05 17:52:00,17.0,-99.9,-100.00,WSW,251,23.0,28.0,-999,-99.99,,,-99.99,,2013-02-06 00:52:00,
2013-02-05 18:02:00,17.0,-99.9,-100.00,WSW,248,24.0,28.0,-999,-99.99,,,-99.99,,2013-02-06 01:02:00,
2013-02-05 18:12:00,17.0,-99.9,-100.00,WSW,248,24.0,28.0,-999,-99.99,,,-99.99,,2013-02-06 01:12:00,
2013-02-05 18:22:00,17.0,-99.9,-100.00,WSW,239,24.0,29.0,-999,-99.99,,,-99.99,,2013-02-06 01:22:00,
2013-02-05 18:33:00,17.0,-99.9,-100.00,WSW,240,25.0,31.0,-999,-99.99,,,-99.99,,2013-02-06 01:33:00,
2013-02-05 18:43:00,17.0,-99.9,-100.00,WSW,240,25.0,31.0,-999,-99.99,,,-99.99,,2013-02-06 01:43:00,
2013-02-05 18:53:00,17.0,-99.9,-100.00,WSW,239,25.0,31.0,-999,-99.99,,,-99.99,,2013-02-06 01:53:00,
2013-02-05 19:02:00,17.0,-99.9,-100.00,WSW,242,24.0,32.0,-999,-99.99,,,-99.99,,2013-02-06 02:02:00,
2013-02-05 19:12:00,17.0,-99.9,-100.00,WSW,242,24.0,32.0,-999,-99.99,,,-99.99,,2013-02-06 02:12:00,
2013-02-05 19:22:00,16.0,-99.9,-100.00,WSW,241,23.0,28.0,-999,-99.99,,,-99.99,,2013-02-06 02:22:00,
2013-02-05 19:32:00,17.0,-99.9,-100.00,WSW,244,23.0,28.0,-999,-99.99,,,-99.99,,2013-02-06 02:32:00,
2013-02-05 19:43:00,17.0,-99.9,-100.00,WSW,244,23.0,28.0,-999,-99.99,,,-99.99,,2013-02-06 02:43:00,
2013-02-05 19:53:00,17.0,-99.9,-100.00,WSW,248,20.0,26.0,-999,-99.99,,,-99.99,,2013-02-06 02:53:00,
2013-02-05 20:03:00,16.0,-99.9,-100.00,WSW,255,21.0,28.0,-999,-99.99,,,-99.99,,2013-02-06 03:03:00,
2013-02-05 20:12:00,16.0,-99.9,-100.00,WSW,255,21.0,28.0,-999,-99.99,,,-99.99,,2013-02-06 03:12:00,
2013-02-05 20:22:00,16.0,-99.9,-100.00,WSW,248,20.0,26.0,-999,-99.99,,,-99.99,,2013-02-06 03:22:00,
2013-02-05 20:33:00,17.0,-99.9,-100.00,WSW,241,22.0,31.0,-999,-99.99,,,-99.99,,2013-02-06 03:33:00,
2013-02-05 20:43:00,17.0,-99.9,-100.00,WSW,241,22.0,31.0,-999,-99.99,,,-99.99,,2013-02-06 03:43:00,
2013-02-05 20:53:00,17.0,-99.9,-100.00,SW,233,23.0,35.0,-999,-99.99,,,-99.99,,2013-02-06 03:53:00,
2013-02-05 21:02:00,17.0,-99.9,-100.00,WSW,239,24.0,35.0,-999,-99.99,,,-99.99,,2013-02-06 04:02:00,
2013-02-05 21:12:00,17.0,-99.9,-100.00,WSW,239,24.0,35.0,-999,-99.99,,,-99.99,,2013-02-06 04:12:00,
2013-02-05 21:22:00,17.0,-99.9,-100.00,WSW,237,22.0,38.0,-999,-99.99,,,-99.99,,2013-02-06 04:22:00,
2013-02-05 21:32:00,17.0,-99.9,-100.00,WSW,245,23.0,31.0,-999,-99.99,,,-99.99,,2013-02-06 04:32:00,
2013-02-05 21:42:00,17.0,-99.9,-100.00,WSW,245,23.0,31.0,-999,-99.99,,,-99.99,,2013-02-06 04:42:00,
2013-02-05 21:52:00,17.0,-99.9,-100.00,WSW,245,24.0,32.0,-999,-99.99,,,-99.99,,2013-02-06 04:52:00,
2013-02-05 22:02:00,16.0,-99.9,-100.00,WSW,250,23.0,29.0,-999,-99.99,,,-99.99,,2013-02-06 05:02:00,
2013-02-05 22:12:00,16.0,-99.9,-100.00,WSW,250,23.0,29.0,-999,-99.99,,,-99.99,,2013-02-06 05:12:00,
2013-02-05 22:22:00,16.0,-99.9,-100.00,WSW,257,22.0,28.0,-999,-99.99,,,-99.99,,2013-02-06 05:22:00,
2013-02-05 22:32:00,16.0,-99.9,-100.00,West,260,22.0,29.0,-999,-99.99,,,-99.99,,2013-02-06 05:32:00,
2013-02-05 22:42:00,16.0,-99.9,-100.00,West,260,22.0,29.0,-999,-99.99,,,-99.99,,2013-02-06 05:42:00,
2013-02-05 22:53:00,16.0,-99.9,-100.00,WSW,250,23.0,28.0,-999,-99.99,,,-99.99,,2013-02-06 05:53:00,
2013-02-05 23:02:00,16.0,-99.9,-100.00,West,260,25.0,35.0,-999,-99.99,,,-99.99,,2013-02-06 06:02:00,
2013-02-05 23:11:00,16.0,-99.9,-100.00,West,260,25.0,35.0,-999,-99.99,,,-99.99,,2013-02-06 06:11:00,
2013-02-05 23:22:00,16.0,-99.9,-100.00,West,261,25.0,32.0,-999,-99.99,,,-99.99,,2013-02-06 06:22:00,
2013-02-05 23:32:00,16.0,-99.9,-100.00,West,265,26.0,32.0,-999,-99.99,,,-99.99,,2013-02-06 06:32:00,
2013-02-05 23:42:00,16.0,-99.9,-100.00,West,265,26.0,32.0,-999,-99.99,,,-99.99,,2013-02-06 06:42:00,
2013-02-05 23:52:00,16.0,-99.9,-100.00,West,266,26.0,32.0,-999,-99.99,,,-99.99,,2013-02-06 06:52:00,